createdAt,value
2019-02-12T00:00:23.782Z,102476.52
2019-02-12T00:02:53.001Z,102490.80
2019-02-12T00:05:22.256Z,102493.10
2019-02-12T00:07:51.495Z,102500.60
2019-02-12T00:10:20.739Z,102504.55
2019-02-12T00:12:50.018Z,102511.47
2019-02-12T00:15:19.250Z,102514.97
2019-02-12T00:17:49.496Z,102515.98
2019-02-12T00:20:20.745Z,102515.03
2019-02-12T00:22:50.004Z,102516.66
2019-02-12T00:25:19.257Z,102511.95
2019-02-12T00:27:48.506Z,102524.58
2019-02-12T00:30:18.663Z,102515.84
2019-02-12T00:32:47.915Z,102517.22
2019-02-12T00:35:18.076Z,102522.33
2019-02-12T00:37:48.298Z,102517.77
2019-02-12T00:40:17.550Z,102524.27
2019-02-12T00:42:47.703Z,102526.17
2019-02-12T00:45:16.943Z,102533.95
2019-02-12T00:47:46.213Z,102540.03
2019-02-12T00:50:16.430Z,102541.67
2019-02-12T00:52:45.675Z,102532.42
2019-02-12T00:55:14.926Z,102534.25
2019-02-12T00:57:45.168Z,102535.67
2019-02-12T01:00:15.633Z,102535.34
2019-02-12T01:02:44.883Z,102536.73
2019-02-12T01:05:14.116Z,102539.88
2019-02-12T01:07:43.381Z,102534.95
2019-02-12T01:10:13.612Z,102543.64
2019-02-12T01:12:43.871Z,102542.75
2019-02-12T01:15:13.882Z,102541.41
2019-02-12T01:17:43.111Z,102536.64
2019-02-12T01:20:15.190Z,102530.58
2019-02-12T01:22:44.429Z,102529.23
2019-02-12T01:25:13.667Z,102531.75
2019-02-12T01:27:42.901Z,102523.70
2019-02-12T01:30:14.287Z,102529.48
2019-02-12T01:32:43.554Z,102529.19
2019-02-12T01:35:12.791Z,102522.17
2019-02-12T01:37:42.101Z,102531.72
2019-02-12T01:40:12.458Z,102535.28
2019-02-12T01:42:41.706Z,102534.73
2019-02-12T01:45:11.879Z,102530.39
2019-02-12T01:47:41.097Z,102542.13
2019-02-12T01:50:11.878Z,102539.87
2019-02-12T01:52:41.116Z,102542.23
2019-02-12T01:55:10.359Z,102543.91
2019-02-12T01:57:40.599Z,102542.71
2019-02-12T02:00:12.877Z,102539.31
2019-02-12T02:02:42.455Z,102543.72
2019-02-12T02:05:11.697Z,102548.50
2019-02-12T02:07:40.944Z,102542.41
2019-02-12T02:10:15.519Z,102546.33
2019-02-12T02:12:44.746Z,102544.89
2019-02-12T02:15:14.551Z,102546.95
2019-02-12T02:17:45.719Z,102548.89
2019-02-12T02:20:15.343Z,102549.22
2019-02-12T02:22:44.570Z,102552.66
2019-02-12T02:25:14.055Z,102559.89
2019-02-12T02:27:43.311Z,102550.70
2019-02-12T02:30:14.892Z,102551.37
2019-02-12T02:32:46.122Z,102548.34
2019-02-12T02:35:15.357Z,102547.02
2019-02-12T02:37:44.584Z,102546.94
2019-02-12T02:40:13.831Z,102556.91
2019-02-12T02:42:43.066Z,102558.47
2019-02-12T02:45:13.144Z,102556.28
2019-02-12T02:47:42.397Z,102555.50
2019-02-12T02:50:11.638Z,102552.13
2019-02-12T02:52:40.888Z,102554.19
2019-02-12T02:55:10.216Z,102558.34
2019-02-12T02:57:39.442Z,102563.70
2019-02-12T03:00:10.879Z,102560.41
2019-02-12T03:02:40.135Z,102564.77
2019-02-12T03:05:11.012Z,102562.90
2019-02-12T03:07:41.311Z,102571.11
2019-02-12T03:10:10.958Z,102571.43
2019-02-12T03:12:40.208Z,102575.41
2019-02-12T03:15:10.993Z,102569.77
2019-02-12T03:17:40.253Z,102571.28
2019-02-12T03:20:11.441Z,102570.85
2019-02-12T03:22:40.691Z,102572.66
2019-02-12T03:25:10.589Z,102564.14
2019-02-12T03:27:39.835Z,102569.42
2019-02-12T03:30:11.282Z,102574.70
2019-02-12T03:32:40.521Z,102573.63
2019-02-12T03:35:10.501Z,102577.98
2019-02-12T03:37:39.755Z,102578.45
2019-02-12T03:40:10.826Z,102576.92
2019-02-12T03:42:40.080Z,102575.53
2019-02-12T03:45:11.848Z,102581.89
2019-02-12T03:47:41.106Z,102584.60
2019-02-12T03:50:12.429Z,102587.44
2019-02-12T03:52:43.596Z,102595.39
2019-02-12T03:55:13.457Z,102589.16
2019-02-12T03:57:42.840Z,102584.51
2019-02-12T04:00:14.056Z,102592.87
2019-02-12T04:03:01.644Z,102593.18
2019-02-12T04:09:14.441Z,102590.70
2019-02-12T04:11:43.679Z,102585.98
2019-02-12T04:14:12.936Z,102587.17
2019-02-12T04:16:42.186Z,102586.70
2019-02-12T04:19:11.431Z,102589.52
2019-02-12T04:21:40.679Z,102596.45
2019-02-12T04:24:09.934Z,102587.62
2019-02-12T04:26:40.124Z,102599.73
2019-02-12T04:29:09.365Z,102606.28
2019-02-12T04:31:38.586Z,102604.34
2019-02-12T04:34:08.755Z,102598.59
2019-02-12T04:36:38.008Z,102598.23
2019-02-12T04:39:07.241Z,102604.89
2019-02-12T04:41:36.464Z,102606.66
2019-02-12T04:44:06.697Z,102597.19
2019-02-12T04:46:35.927Z,102596.21
2019-02-12T04:49:05.189Z,102606.48
2019-02-12T04:51:34.420Z,102596.83
2019-02-12T04:54:03.691Z,102598.77
2019-02-12T04:56:32.924Z,102597.84
2019-02-12T04:59:02.164Z,102596.51
2019-02-12T05:01:31.407Z,102602.28
2019-02-12T05:04:01.575Z,102602.17
2019-02-12T05:06:30.800Z,102605.45
2019-02-12T05:09:17.597Z,102599.59
2019-02-12T05:11:50.488Z,102601.20
2019-02-12T05:14:19.790Z,102605.60
2019-02-12T05:16:49.013Z,102604.39
2019-02-12T05:19:18.267Z,102605.38
2019-02-12T05:21:47.517Z,102605.34
2019-02-12T05:24:16.746Z,102609.39
2019-02-12T05:26:45.963Z,102609.95
2019-02-12T05:29:15.210Z,102610.89
2019-02-12T05:31:44.447Z,102612.08
2019-02-12T05:34:14.580Z,102612.44
2019-02-12T05:36:43.833Z,102614.30
2019-02-12T05:39:13.083Z,102615.38
2019-02-12T05:41:42.335Z,102612.58
2019-02-12T05:44:11.602Z,102608.16
2019-02-12T05:46:40.854Z,102608.09
2019-02-12T05:49:10.100Z,102604.14
2019-02-12T05:51:39.331Z,102605.03
2019-02-12T05:54:09.528Z,102610.08
2019-02-12T05:56:38.789Z,102610.43
2019-02-12T05:59:09.051Z,102609.86
2019-02-12T06:01:38.292Z,102618.88
2019-02-12T06:04:07.554Z,102619.48
2019-02-12T06:06:36.801Z,102622.78
2019-02-12T06:09:06.140Z,102616.73
2019-02-12T06:11:35.357Z,102621.81
2019-02-12T06:14:04.705Z,102626.41
2019-02-12T06:16:33.926Z,102619.04
2019-02-12T06:19:03.179Z,102621.25
2019-02-12T06:21:32.426Z,102630.76
2019-02-12T06:24:02.671Z,102629.84
2019-02-12T06:26:31.909Z,102624.69
2019-02-12T06:29:01.244Z,102630.23
2019-02-12T06:31:30.480Z,102625.80
2019-02-12T06:33:59.694Z,102624.53
2019-02-12T06:36:28.928Z,102621.05
2019-02-12T06:38:59.162Z,102626.99
2019-02-12T06:41:30.339Z,102631.80
2019-02-12T06:43:59.565Z,102625.91
2019-02-12T06:46:29.871Z,102631.75
2019-02-12T06:48:59.127Z,102632.11
2019-02-12T06:51:32.021Z,102628.14
2019-02-12T06:54:02.230Z,102636.99
2019-02-12T06:56:31.525Z,102643.98
2019-02-12T06:59:00.760Z,102644.92
2019-02-12T07:01:31.989Z,102644.46
2019-02-12T07:04:01.208Z,102646.22
2019-02-12T07:06:42.187Z,102643.73
2019-02-12T07:09:17.107Z,102656.36
2019-02-12T07:12:18.924Z,102656.33
2019-02-12T07:15:00.284Z,102657.52
2019-02-12T07:17:38.261Z,102664.69
2019-02-12T07:20:29.814Z,102669.45
2019-02-12T07:23:21.297Z,102672.91
2019-02-12T07:26:00.332Z,102685.18
2019-02-12T07:28:47.389Z,102696.02
2019-02-12T07:31:29.712Z,102695.54
2019-02-12T07:34:17.030Z,102701.44
2019-02-12T07:37:01.082Z,102706.10
2019-02-12T07:39:49.448Z,102713.39
2019-02-12T07:42:39.806Z,102723.16
2019-02-12T07:45:28.093Z,102726.26
2019-02-12T07:48:10.109Z,102732.69
2019-02-12T07:50:42.539Z,102735.45
2019-02-12T07:53:30.606Z,102734.61
2019-02-12T07:56:04.847Z,102732.64
2019-02-12T07:58:49.084Z,102738.52
2019-02-12T08:01:46.795Z,102744.19
2019-02-12T08:04:31.081Z,102748.45
2019-02-12T08:07:12.275Z,102751.03
2019-02-12T08:09:53.666Z,102756.98
2019-02-12T08:12:33.909Z,102761.91
2019-02-12T08:15:30.363Z,102770.30
2019-02-12T08:18:10.627Z,102777.10
2019-02-12T08:21:15.471Z,102780.27
2019-02-12T08:24:05.454Z,102781.32
2019-02-12T08:26:40.675Z,102783.09
2019-02-12T08:29:21.569Z,102780.95
2019-02-12T08:32:12.938Z,102786.56
2019-02-12T08:34:59.950Z,102796.45
2019-02-12T08:38:07.312Z,102794.27
2019-02-12T08:40:45.678Z,102792.78
2019-02-12T08:43:36.202Z,102796.28
2019-02-12T08:46:15.154Z,102794.05
2019-02-12T08:49:04.324Z,102801.95
2019-02-12T08:51:56.320Z,102793.00
2019-02-12T08:54:37.784Z,102792.56
2019-02-12T08:57:18.266Z,102796.52
2019-02-12T09:00:13.939Z,102793.21
2019-02-12T09:02:46.376Z,102799.79
2019-02-12T09:05:30.479Z,102798.00
2019-02-12T09:08:21.803Z,102792.12
2019-02-12T09:11:10.761Z,102796.20
2019-02-12T09:13:46.981Z,102800.69
2019-02-12T09:16:35.622Z,102802.95
2019-02-12T09:19:08.043Z,102804.19
2019-02-12T09:21:58.425Z,102803.54
2019-02-12T09:24:47.161Z,102790.98
2019-02-12T09:27:22.592Z,102789.88
2019-02-12T09:30:05.180Z,102792.06
2019-02-12T09:32:53.062Z,102795.28
2019-02-12T09:35:31.315Z,102802.48
2019-02-12T09:38:23.999Z,102803.48
2019-02-12T09:40:56.447Z,102807.83
2019-02-12T09:43:41.816Z,102810.65
2019-02-12T09:46:41.670Z,102808.95
2019-02-12T09:49:38.777Z,102807.82
2019-02-12T09:52:33.619Z,102815.44
2019-02-12T09:55:32.489Z,102815.47
2019-02-12T09:58:34.283Z,102814.95
2019-02-12T10:01:10.098Z,102817.81
2019-02-12T10:03:48.205Z,102812.70
2019-02-12T10:06:32.764Z,102822.30
2019-02-12T10:09:22.900Z,102817.94
2019-02-12T10:12:19.009Z,102819.48
2019-02-12T10:15:04.219Z,102817.67
2019-02-12T10:17:48.321Z,102817.48
2019-02-12T10:20:30.596Z,102816.66
2019-02-12T10:23:14.797Z,102821.42
2019-02-12T10:25:45.272Z,102830.52
2019-02-12T10:28:32.387Z,102838.65
2019-02-12T10:31:04.919Z,102836.95
2019-02-12T10:33:40.840Z,102841.45
2019-02-12T10:36:10.093Z,102834.92
2019-02-12T10:38:39.351Z,102843.11
2019-02-12T10:41:09.552Z,102840.09
2019-02-12T10:43:38.804Z,102842.36
2019-02-12T10:46:08.990Z,102849.30
2019-02-12T10:48:39.171Z,102845.80
2019-02-12T10:51:09.428Z,102844.95
2019-02-12T10:53:38.744Z,102842.81
2019-02-12T10:56:08.026Z,102833.45
2019-02-12T10:58:37.291Z,102835.27
2019-02-12T11:01:07.448Z,102832.86
2019-02-12T11:03:36.693Z,102842.79
2019-02-12T11:06:05.978Z,102839.02
2019-02-12T11:08:35.253Z,102841.14
2019-02-12T11:11:04.578Z,102839.11
2019-02-12T11:13:33.822Z,102836.37
2019-02-12T11:16:03.064Z,102834.27
2019-02-12T11:18:32.318Z,102835.74
2019-02-12T11:21:02.570Z,102826.92
2019-02-12T11:23:31.819Z,102830.65
2019-02-12T11:26:01.061Z,102830.35
2019-02-12T11:28:32.244Z,102836.98
2019-02-12T11:31:01.503Z,102833.62
2019-02-12T11:33:30.747Z,102827.87
2019-02-12T11:36:00.004Z,102832.88
2019-02-12T11:38:29.228Z,102828.27
2019-02-12T11:40:58.484Z,102825.74
2019-02-12T11:43:27.730Z,102830.37
2019-02-12T11:45:56.957Z,102825.63
2019-02-12T11:48:26.206Z,102827.63
2019-02-12T11:50:55.452Z,102819.09
2019-02-12T11:53:24.702Z,102828.91
2019-02-12T11:55:53.952Z,102832.55
2019-02-12T11:58:24.107Z,102825.48
2019-02-12T12:00:54.994Z,102823.30
2019-02-12T12:03:24.242Z,102825.28
2019-02-12T12:05:54.544Z,102825.05
2019-02-12T12:08:23.848Z,102819.84
2019-02-12T12:10:53.084Z,102818.27
2019-02-12T12:13:22.335Z,102810.86
2019-02-12T12:15:51.599Z,102815.31
2019-02-12T12:18:20.859Z,102809.27
2019-02-12T12:20:50.112Z,102809.97
2019-02-12T12:23:19.366Z,102809.21
2019-02-12T12:25:50.533Z,102812.83
2019-02-12T12:28:20.783Z,102810.88
2019-02-12T12:30:50.022Z,102812.97
2019-02-12T12:33:20.264Z,102811.29
2019-02-12T12:35:49.493Z,102811.52
2019-02-12T12:38:18.799Z,102808.98
2019-02-12T12:40:48.039Z,102806.88
2019-02-12T12:43:18.288Z,102807.73
2019-02-12T12:45:47.512Z,102797.28
2019-02-12T12:48:16.778Z,102803.52
2019-02-12T12:50:46.012Z,102804.94
2019-02-12T12:53:15.263Z,102812.59
2019-02-12T12:55:44.484Z,102807.09
2019-02-12T12:58:14.695Z,102812.48
2019-02-12T13:00:43.964Z,102818.58
2019-02-12T13:03:13.556Z,102813.22
2019-02-12T13:05:42.821Z,102819.28
2019-02-12T13:08:12.038Z,102821.67
2019-02-12T13:10:41.287Z,102813.48
2019-02-12T13:13:10.524Z,102813.67
2019-02-12T13:15:39.780Z,102814.50
2019-02-12T13:18:09.001Z,102807.89
2019-02-12T13:20:38.250Z,102805.02
2019-02-12T13:23:08.485Z,102803.70
2019-02-12T13:25:39.821Z,102795.97
2019-02-12T13:28:09.042Z,102801.91
2019-02-12T13:30:38.294Z,102810.28
2019-02-12T13:33:07.535Z,102809.56
2019-02-12T13:35:36.792Z,102812.07
2019-02-12T13:38:06.041Z,102808.02
2019-02-12T13:40:35.295Z,102811.22
2019-02-12T13:43:04.522Z,102813.58
2019-02-12T13:45:33.767Z,102801.97
2019-02-12T13:48:03.022Z,102798.09
2019-02-12T13:50:32.424Z,102803.64
2019-02-12T13:53:01.672Z,102799.24
2019-02-12T13:55:31.888Z,102800.37
2019-02-12T13:58:02.111Z,102807.34
2019-02-12T14:00:31.330Z,102817.60
2019-02-12T14:03:00.605Z,102810.07
2019-02-12T14:05:29.891Z,102802.70
2019-02-12T14:07:59.182Z,102797.28
2019-02-12T14:10:28.430Z,102800.22
2019-02-12T14:12:58.670Z,102800.78
2019-02-12T14:15:27.892Z,102799.20
2019-02-12T14:17:57.135Z,102798.25
2019-02-12T14:20:26.387Z,102799.59
2019-02-12T14:22:55.716Z,102808.71
2019-02-12T14:25:26.103Z,102805.87
2019-02-12T14:27:55.361Z,102807.20
2019-02-12T14:30:24.625Z,102810.70
2019-02-12T14:32:53.882Z,102806.16
2019-02-12T14:35:23.122Z,102809.79
2019-02-12T14:37:52.370Z,102802.20
2019-02-12T14:40:21.620Z,102805.09
2019-02-12T14:42:50.854Z,102807.83
2019-02-12T14:45:20.337Z,102807.57
2019-02-12T14:47:49.583Z,102806.96
2019-02-12T14:50:20.066Z,102804.30
2019-02-12T14:52:49.310Z,102809.19
2019-02-12T14:55:18.548Z,102804.28
2019-02-12T14:57:47.839Z,102812.58
2019-02-12T15:00:20.455Z,102811.76
2019-02-12T15:02:49.714Z,102807.00
2019-02-12T15:05:18.959Z,102804.70
2019-02-12T15:07:49.184Z,102809.88
2019-02-12T15:10:18.424Z,102809.09
2019-02-12T15:12:48.583Z,102806.98
2019-02-12T15:15:17.842Z,102799.02
2019-02-12T15:17:47.086Z,102804.45
2019-02-12T15:20:16.317Z,102797.45
2019-02-12T15:22:45.573Z,102805.60
2019-02-12T15:25:14.818Z,102793.19
2019-02-12T15:27:45.042Z,102801.05
2019-02-12T15:30:18.167Z,102796.32
2019-02-12T15:32:47.420Z,102793.35
2019-02-12T15:35:16.765Z,102795.52
2019-02-12T15:37:46.000Z,102793.38
2019-02-12T15:40:17.003Z,102787.14
2019-02-12T15:42:46.257Z,102792.04
2019-02-12T15:45:23.255Z,102789.86
2019-02-12T15:47:53.443Z,102788.58
2019-02-12T15:50:22.684Z,102791.11
2019-02-12T15:52:51.907Z,102791.30
2019-02-12T15:55:21.158Z,102791.12
2019-02-12T15:57:50.406Z,102790.58
2019-02-12T16:00:20.700Z,102788.41
2019-02-12T16:02:50.016Z,102789.64
2019-02-12T16:05:19.282Z,102791.83
2019-02-12T16:07:48.543Z,102786.46
2019-02-12T16:10:21.854Z,102784.91
2019-02-12T16:12:51.655Z,102787.95
2019-02-12T16:15:24.560Z,102792.27
2019-02-12T16:17:52.949Z,102797.01
2019-02-12T16:20:22.223Z,102802.09
2019-02-12T16:22:51.507Z,102804.73
2019-02-12T16:25:20.707Z,102810.70
2019-02-12T16:27:49.949Z,102810.52
2019-02-12T16:30:22.457Z,102814.38
2019-02-12T16:32:51.711Z,102816.89
2019-02-12T16:35:20.964Z,102820.48
2019-02-12T16:37:51.139Z,102821.59
2019-02-12T16:40:21.372Z,102812.91
2019-02-12T16:42:50.598Z,102811.67
2019-02-12T16:45:30.900Z,102830.02
2019-02-12T16:48:00.307Z,102827.70
2019-02-12T16:50:29.568Z,102828.52
2019-02-12T16:52:58.792Z,102825.48
2019-02-12T16:55:28.033Z,102831.27
2019-02-12T16:57:57.364Z,102830.02
2019-02-12T17:00:26.579Z,102837.83
2019-02-12T17:02:56.746Z,102845.11
2019-02-12T17:05:25.979Z,102842.27
2019-02-12T17:07:56.183Z,102850.16
2019-02-12T17:10:25.509Z,102849.77
2019-02-12T17:12:54.744Z,102847.80
2019-02-12T17:15:24.973Z,102842.06
2019-02-12T17:17:55.213Z,102843.48
2019-02-12T17:20:25.398Z,102847.07
2019-02-12T17:22:54.668Z,102848.29
2019-02-12T17:25:23.916Z,102852.79
2019-02-12T17:27:54.155Z,102849.64
2019-02-12T17:30:23.414Z,102859.24
2019-02-12T17:32:52.673Z,102858.38
2019-02-12T17:35:21.912Z,102862.80
2019-02-12T17:37:56.984Z,102861.61
2019-02-12T17:40:26.237Z,102866.21
2019-02-12T17:42:55.516Z,102867.66
2019-02-12T17:45:24.756Z,102868.09
2019-02-12T17:47:54.009Z,102864.80
2019-02-12T17:50:23.531Z,102864.64
2019-02-12T17:52:52.803Z,102862.40
2019-02-12T17:55:24.029Z,102867.63
2019-02-12T17:57:54.238Z,102874.76
2019-02-12T18:00:26.114Z,102872.70
2019-02-12T18:02:55.354Z,102870.07
2019-02-12T18:05:32.081Z,102872.57
2019-02-12T18:08:02.296Z,102876.53
2019-02-12T18:10:31.548Z,102868.73
2019-02-12T18:13:00.804Z,102871.61
2019-02-12T18:15:31.202Z,102874.53
2019-02-12T18:18:00.466Z,102872.19
2019-02-12T18:20:29.702Z,102870.58
2019-02-12T18:22:58.955Z,102872.61
2019-02-12T18:25:28.207Z,102871.81
2019-02-12T18:27:57.470Z,102873.30
2019-02-12T18:30:26.711Z,102872.92
2019-02-12T18:32:57.893Z,102867.44
2019-02-12T18:35:28.092Z,102858.86
2019-02-12T18:37:57.356Z,102867.69
2019-02-12T18:40:26.608Z,102865.47
2019-02-12T18:42:55.842Z,102866.72
2019-02-12T18:45:26.106Z,102875.36
2019-02-12T18:47:55.414Z,102870.11
2019-02-12T18:50:24.616Z,102869.48
2019-02-12T18:52:55.764Z,102865.88
2019-02-12T18:55:24.989Z,102864.34
2019-02-12T18:57:54.224Z,102857.72
2019-02-12T19:00:23.771Z,102860.28
2019-02-12T19:02:53.027Z,102862.03
2019-02-12T19:05:22.245Z,102855.30
2019-02-12T19:07:53.397Z,102851.59
2019-02-12T19:10:22.639Z,102859.11
2019-02-12T19:12:51.960Z,102856.11
2019-02-12T19:15:22.049Z,102844.81
2019-02-12T19:18:07.221Z,102840.15
2019-02-12T19:20:36.462Z,102838.34
2019-02-12T19:23:05.773Z,102838.23
2019-02-12T19:25:35.106Z,102843.42
2019-02-12T19:28:04.413Z,102848.48
2019-02-12T19:30:35.676Z,102848.61
2019-02-12T19:33:04.913Z,102848.36
2019-02-12T19:35:35.087Z,102868.22
2019-02-12T19:38:04.337Z,102861.66
2019-02-12T19:40:33.592Z,102857.98
2019-02-12T19:43:07.451Z,102862.19
2019-02-12T19:45:37.778Z,102868.21
2019-02-12T19:48:08.032Z,102872.38
2019-02-12T19:50:37.278Z,102881.58
2019-02-12T19:53:07.431Z,102880.19
2019-02-12T19:55:36.667Z,102881.41
2019-02-12T19:58:05.915Z,102874.84
2019-02-12T20:00:35.185Z,102881.47
2019-02-12T20:03:04.852Z,102888.20
2019-02-12T20:05:35.113Z,102886.16
2019-02-12T20:08:04.368Z,102893.64
2019-02-12T20:10:33.620Z,102887.49
2019-02-12T20:13:02.950Z,102877.67
2019-02-12T20:15:32.193Z,102882.39
2019-02-12T20:18:01.441Z,102877.25
2019-02-12T20:20:30.702Z,102874.73
2019-02-12T20:22:59.962Z,102876.12
2019-02-12T20:25:29.263Z,102876.54
2019-02-12T20:27:58.518Z,102877.41
2019-02-12T20:30:27.772Z,102877.67
2019-02-12T20:32:57.034Z,102875.09
2019-02-12T20:35:26.267Z,102881.02
2019-02-12T20:37:55.591Z,102879.83
2019-02-12T20:40:24.851Z,102877.87
2019-02-12T20:42:54.089Z,102874.42
2019-02-12T20:45:23.341Z,102879.37
2019-02-12T20:47:52.582Z,102871.91
2019-02-12T20:50:21.977Z,102873.75
2019-02-12T20:52:51.218Z,102872.11
2019-02-12T20:55:20.464Z,102881.63
2019-02-12T20:57:49.732Z,102884.41
2019-02-12T21:00:21.426Z,102886.61
2019-02-12T21:02:50.659Z,102890.41
2019-02-12T21:05:20.852Z,102882.50
2019-02-12T21:07:50.346Z,102876.01
2019-02-12T21:10:24.018Z,102880.19
2019-02-12T21:12:53.243Z,102876.22
2019-02-12T21:15:27.275Z,102880.19
2019-02-12T21:17:56.514Z,102881.21
2019-02-12T21:20:25.781Z,102886.45
2019-02-12T21:22:57.284Z,102881.42
2019-02-12T21:25:26.522Z,102886.87
2019-02-12T21:27:55.780Z,102892.98
2019-02-12T21:30:33.221Z,102885.22
2019-02-12T21:33:02.474Z,102893.76
2019-02-12T21:35:31.721Z,102903.84
2019-02-12T21:38:01.533Z,102907.33
2019-02-12T21:40:31.758Z,102899.02
2019-02-12T21:43:01.009Z,102893.88
2019-02-12T21:45:30.253Z,102895.30
2019-02-12T21:47:59.490Z,102903.02
2019-02-12T21:50:29.669Z,102900.80
2019-02-12T21:52:58.920Z,102898.64
2019-02-12T21:55:28.167Z,102907.75
2019-02-12T21:57:58.798Z,102916.84
2019-02-12T22:00:28.128Z,102929.55
2019-02-12T22:02:57.354Z,102923.44
2019-02-12T22:05:26.594Z,102925.72
2019-02-12T22:07:55.848Z,102929.34
2019-02-12T22:10:26.868Z,102926.10
2019-02-12T22:12:56.122Z,102933.09
2019-02-12T22:15:26.354Z,102938.70
2019-02-12T22:17:55.621Z,102937.93
2019-02-12T22:20:24.862Z,102940.69
2019-02-12T22:22:54.117Z,102929.94
2019-02-12T22:25:23.372Z,102934.78
2019-02-12T22:27:52.686Z,102936.03
2019-02-12T22:30:23.463Z,102940.25
2019-02-12T22:32:52.703Z,102941.64
2019-02-12T22:35:21.944Z,102934.94
2019-02-12T22:37:51.471Z,102943.73
2019-02-12T22:40:21.712Z,102944.79
2019-02-12T22:42:50.988Z,102939.80
2019-02-12T22:45:25.699Z,102943.38
2019-02-12T22:47:54.955Z,102935.20
2019-02-12T22:50:24.211Z,102931.97
2019-02-12T22:52:53.452Z,102941.26
2019-02-12T22:55:22.687Z,102945.74
2019-02-12T22:57:51.916Z,102950.25
2019-02-12T23:00:47.102Z,102948.58
2019-02-12T23:03:16.409Z,102946.17
2019-02-12T23:05:45.660Z,102943.93
2019-02-12T23:08:14.892Z,102945.12
2019-02-12T23:10:44.221Z,102960.31
2019-02-12T23:13:13.527Z,102961.98
2019-02-12T23:15:42.872Z,102968.23
2019-02-12T23:18:12.100Z,102966.97
2019-02-12T23:20:41.349Z,102963.89
2019-02-12T23:23:11.556Z,102964.86
2019-02-12T23:25:40.813Z,102952.85
2019-02-12T23:28:10.040Z,102954.02
2019-02-12T23:30:39.288Z,102958.70
2019-02-12T23:33:09.473Z,102963.65
2019-02-12T23:35:38.746Z,102960.98
2019-02-12T23:38:09.934Z,102964.95
2019-02-12T23:40:39.222Z,102963.32
2019-02-12T23:43:09.502Z,102972.37
2019-02-12T23:45:38.706Z,102981.66
2019-02-12T23:48:08.085Z,102972.48
2019-02-12T23:50:37.321Z,102969.39
2019-02-12T23:53:06.577Z,102968.73
2019-02-12T23:55:35.802Z,102966.81
2019-02-12T23:58:06.261Z,102964.95
